• Join FlightAware (Why Join?)
  • Login
  • US Flag 
06:49AM EDT


 

Airport Tracker/Info


-or-


 

Live Flight TrackerFlight Track Log ✈ RPA4907 ✈ 17-Aug-2013 ✈ KBWI - KEWR

Flight Track Log - Related Links

Times and Time Zones

All times are in EDT time to prevent confusion due to time zone crossing. See the RPA4907 flight status page for this flight to view local times or setup timezone preferences in your user account.

Time Position Orientation Groundspeed Altitude Reporting Facility
EDT Latitude Longitude Course Direction KTS MPH feet Rate Location/Type
01:31PM 39.1500 -76.6333 49° Northeast 186 214 1,800  Level Potomac TRACON
01:32PM 39.1667 -76.5500 76° East 205 236 4,400 2,340 Climbing Potomac TRACON
01:33PM 39.1667 -76.4667 90° East 225 259 6,800 2,220 Climbing Potomac TRACON
01:34PM 39.1667 -76.3833 90° East 244 281 9,100 1,980 Climbing Potomac TRACON
01:35PM 39.1667 -76.3000 90° East 265 305 10,600 960 Climbing Potomac TRACON
01:36PM 39.2333 -76.2333 38° Northeast 309 356 11,000 60 Climbing Potomac TRACON
01:37PM 39.9859 -74.7795 49° Northeast  Level FlightAware Approximate
01:38PM 39.3833 -76.0333 46° Northeast 322 371 11,000  Level Philadelphia TRACON
01:39PM 39.4333 -75.9333 57° Northeast 320 368 11,000  Level Philadelphia TRACON
01:40PM 39.4667 -75.8333 67° East 319 367 11,000  Level Philadelphia TRACON
01:42PM 39.5167 -75.7333 57° Northeast 318 366 11,000  Level Philadelphia TRACON
01:43PM 39.5667 -75.6333 57° Northeast 318 366 11,000 -180 Level Philadelphia TRACON
01:44PM 39.6167 -75.5167 61° Northeast 319 367 10,700 -480 Descending Philadelphia TRACON
01:45PM 39.6667 -75.4000 61° Northeast 325 374 10,000 -420 Descending Philadelphia TRACON
01:46PM 39.7000 -75.3167 63° Northeast 316 364 10,000  Level Philadelphia TRACON
01:47PM 39.7500 -75.2333 52° Northeast 305 351 10,000  Level Philadelphia TRACON
01:48PM 39.8000 -75.1333 57° Northeast 296 341 10,000 -360 Level Philadelphia TRACON
01:49PM 39.8333 -75.0500 62° Northeast 285 328 9,400 -900 Descending Philadelphia TRACON
01:50PM 39.8833 -74.9667 52° Northeast 272 313 8,300 -720 Descending Philadelphia TRACON
01:51PM 39.9333 -74.9000 46° Northeast 278 320 8,000 -420 Descending Philadelphia TRACON
01:51PM 39.9667 -74.8333 57° Northeast 274 315 7,600 -540 Descending Philadelphia TRACON
01:52PM 40.0167 -74.7500 52° Northeast 267 307 7,000 -300 Descending New York TRACON
01:53PM 40.0667 -74.6833 46° Northeast 265 305 7,000  Level New York TRACON
01:54PM 40.1333 -74.6167 37° Northeast 260 299 7,000  Level New York TRACON
01:55PM 40.2000 -74.6000 11° North 266 306 7,000 -360 Level New York TRACON
01:56PM 40.2667 -74.6000 360° North 261 300 6,300 -480 Descending New York TRACON
01:57PM 40.3333 -74.5833 11° North 251 289 6,100 -180 Descending New York TRACON
01:58PM 40.4167 -74.5667 North 259 298 6,000 -60 Descending New York TRACON
01:59PM 40.4833 -74.5667 360° North 260 299 6,000  Level New York TRACON
02:00PM 40.5500 -74.5500 11° North 260 299 6,000  Level New York TRACON
02:01PM 40.6167 -74.5500 360° North 261 300 6,000  Level New York TRACON
02:02PM 40.7000 -74.5333 North 259 298 6,000  Level New York TRACON
02:03PM 40.7667 -74.5333 360° North 257 296 6,000  Level New York TRACON
02:04PM 40.8333 -74.5167 11° North 256 295 6,000 -300 Level New York TRACON
02:05PM 40.9000 -74.4667 30° Northeast 265 305 5,500 -540 Descending New York TRACON
02:06PM 40.9167 -74.3833 75° East 226 260 5,000 -300 Descending New York TRACON
02:07PM 40.9333 -74.3167 72° East 225 259 4,900 -420 Descending New York TRACON
02:08PM 40.9167 -74.2333 105° East 224 258 4,200 -480 Descending New York TRACON
02:09PM 40.9000 -74.1667 108° East 224 258 4,000 -240 Descending New York TRACON
02:10PM 40.8667 -74.0833 118° Southeast 226 260 3,800 -900 Descending New York TRACON
02:11PM 40.8000 -74.1000 191° South 210 242 2,300 -1,200 Descending New York TRACON
02:12PM 40.7667 -74.1167 201° Southwest 175 201 1,400 -900 Descending New York TRACON
02:13PM 40.7167 -74.1500 207° Southwest 137 158 600 -840 Descending New York TRACON
02:15PM 40.6925 -74.1687 159° South  Level Estimated